Time;durP1;ratioP1;P1;durP2;ratioP2;P2;SDS_P1;SDS_P2;PMS_P1;PMS_P2;Temp;Humidity;BMP_temperature;BMP_pressure;BME280_temperature;BME280_humidity;BME280_pressure;Samples;Min_cycle;Max_cycle;Signal;HPM_P1;HPM_P2
2021/09/10 00:01:47;;;;;;;14.02;10.35;;;;;;;;;;5033007;28;20053;-63
2021/09/10 00:04:14;;;;;;;13.48;10.75;;;;;;;;;;5032738;28;20049;-63
2021/09/10 00:06:41;;;;;;;12.13;10.45;;;;;;;;;;5032958;28;20041;-62
2021/09/10 00:09:08;;;;;;;12.35;10.18;;;;;;;;;;5032698;28;20088;-63
2021/09/10 00:11:36;;;;;;;12.13;9.90;;;;;;;;;;5032911;28;20058;-63
2021/09/10 00:14:04;;;;;;;13.32;10.43;;;;;;;;;;5032401;28;20426;-63
2021/09/10 00:16:31;;;;;;;13.13;10.93;;;;;;;;;;5032770;28;20057;-63
2021/09/10 00:18:58;;;;;;;11.00;9.43;;;;;;;;;;5032720;28;20050;-63
2021/09/10 00:21:24;;;;;;;11.75;10.15;;;;;;;;;;5032635;28;20049;-63
2021/09/10 00:23:51;;;;;;;14.00;11.23;;;;;;;;;;5032355;28;20053;-63
2021/09/10 00:26:18;;;;;;;12.43;10.20;;;;;;;;;;5032749;28;20406;-63
2021/09/10 00:28:46;;;;;;;13.63;10.77;;;;;;;;;;5032122;28;20275;-63
2021/09/10 00:31:13;;;;;;;13.40;10.80;;;;;;;;;;5032423;28;20096;-63
2021/09/10 00:33:40;;;;;;;12.73;10.50;;;;;;;;;;5032297;28;20045;-63
2021/09/10 00:36:07;;;;;;;12.25;10.15;;;;;;;;;;5032543;28;20045;-63
2021/09/10 00:38:35;;;;;;;13.93;10.75;;;;;;;;;;5032287;28;20045;-63
2021/09/10 00:41:03;;;;;;;12.48;10.10;;;;;;;;;;5032462;28;20061;-63
2021/09/10 00:43:30;;;;;;;11.85;10.65;;;;;;;;;;5032047;28;20062;-63
2021/09/10 00:45:59;;;;;;;12.30;10.45;;;;;;;;;;5032437;28;20507;-63
2021/09/10 00:48:27;;;;;;;11.73;9.73;;;;;;;;;;5032685;28;20113;-63
2021/09/10 00:50:55;;;;;;;11.43;9.52;;;;;;;;;;5032191;28;20053;-63
2021/09/10 00:53:22;;;;;;;11.57;9.77;;;;;;;;;;5031700;28;20053;-64
2021/09/10 00:55:49;;;;;;;12.68;9.82;;;;;;;;;;5032030;28;20042;-65
2021/09/10 00:58:16;;;;;;;13.25;10.65;;;;;;;;;;5031945;28;20056;-63
2021/09/10 01:00:43;;;;;;;13.10;10.60;;;;;;;;;;5031954;28;20491;-63
2021/09/10 01:03:12;;;;;;;13.27;10.80;;;;;;;;;;5031646;28;20056;-63
2021/09/10 01:05:42;;;;;;;14.18;11.68;;;;;;;;;;5031830;28;20057;-63
2021/09/10 01:08:11;;;;;;;13.20;10.30;;;;;;;;;;5031986;28;20049;-63
2021/09/10 01:10:38;;;;;;;13.55;11.30;;;;;;;;;;5031684;28;20490;-63
2021/09/10 01:13:05;;;;;;;13.93;11.77;;;;;;;;;;5031532;28;20049;-63
2021/09/10 01:15:32;;;;;;;14.93;12.93;;;;;;;;;;5031685;28;20052;-64
2021/09/10 01:17:59;;;;;;;17.13;13.00;;;;;;;;;;5031761;28;20056;-64
2021/09/10 01:20:28;;;;;;;13.77;11.10;;;;;;;;;;5031665;28;20065;-64
2021/09/10 01:22:55;;;;;;;15.43;10.75;;;;;;;;;;5031819;28;20502;-64
2021/09/10 01:25:23;;;;;;;12.75;10.05;;;;;;;;;;5031658;28;20052;-64
2021/09/10 01:27:53;;;;;;;11.82;10.23;;;;;;;;;;5031745;28;20049;-64
2021/09/10 01:30:21;;;;;;;;;;;;;;;;;;5032018;28;20045;-64
2021/09/10 01:32:49;;;;;;;13.75;10.18;;;;;;;;;;5031487;28;19925;-64
2021/09/10 01:35:17;;;;;;;13.23;10.77;;;;;;;;;;5031583;28;20046;-64
2021/09/10 01:37:44;;;;;;;11.23;9.40;;;;;;;;;;5031697;28;20041;-64
2021/09/10 01:40:12;;;;;;;11.15;9.40;;;;;;;;;;5032072;28;20530;-64
2021/09/10 01:42:41;;;;;;;11.65;10.00;;;;;;;;;;5035755;28;20049;-64
2021/09/10 01:45:10;;;;;;;11.07;9.38;;;;;;;;;;5035540;28;20046;-64
2021/09/10 01:47:37;;;;;;;10.95;9.35;;;;;;;;;;5035721;28;20057;-64
2021/09/10 01:50:06;;;;;;;11.55;9.68;;;;;;;;;;5035535;28;20236;-64
2021/09/10 01:52:33;;;;;;;13.23;10.63;;;;;;;;;;5035454;28;20049;-64
2021/09/10 01:55:00;;;;;;;17.15;12.68;;;;;;;;;;5035307;28;20049;-64
2021/09/10 01:57:27;;;;;;;17.27;14.20;;;;;;;;;;5035434;28;20053;-64
2021/09/10 01:59:55;;;;;;;19.08;15.65;;;;;;;;;;5035376;28;20049;-64
2021/09/10 02:02:22;;;;;;;19.15;15.27;;;;;;;;;;5035237;28;20474;-64
2021/09/10 02:04:49;;;;;;;19.35;15.10;;;;;;;;;;5035122;28;20490;-64
2021/09/10 02:07:16;;;;;;;19.75;17.30;;;;;;;;;;5035097;28;20056;-64
2021/09/10 02:09:43;;;;;;;18.98;14.50;;;;;;;;;;5035065;28;20422;-64
2021/09/10 02:12:10;;;;;;;14.73;12.15;;;;;;;;;;5035028;28;20064;-64
2021/09/10 02:14:38;;;;;;;13.45;11.45;;;;;;;;;;5034824;28;20045;-64
2021/09/10 02:17:07;;;;;;;13.93;10.88;;;;;;;;;;5034960;28;20041;-64
2021/09/10 02:19:34;;;;;;;13.18;10.15;;;;;;;;;;5034959;28;20075;-64
2021/09/10 02:22:01;;;;;;;11.65;10.05;;;;;;;;;;5035104;28;20050;-64
2021/09/10 02:24:28;;;;;;;12.23;9.70;;;;;;;;;;5034652;28;20049;-64
2021/09/10 02:26:55;;;;;;;12.48;11.15;;;;;;;;;;5035386;28;20052;-64
2021/09/10 02:29:22;;;;;;;13.40;11.32;;;;;;;;;;5034728;28;20092;-64
2021/09/10 02:31:49;;;;;;;13.55;11.43;;;;;;;;;;5034987;28;20052;-64
2021/09/10 02:34:17;;;;;;;15.88;11.93;;;;;;;;;;5034877;28;20053;-64
2021/09/10 02:36:44;;;;;;;15.73;14.02;;;;;;;;;;5034711;28;20049;-64
2021/09/10 02:39:12;;;;;;;16.13;13.27;;;;;;;;;;5034493;28;20046;-64
2021/09/10 02:41:40;;;;;;;17.25;13.93;;;;;;;;;;5034581;28;20046;-64
2021/09/10 02:44:08;;;;;;;13.95;12.05;;;;;;;;;;5034339;28;20055;-64
2021/09/10 02:46:35;;;;;;;13.65;11.13;;;;;;;;;;5034606;28;20045;-64
2021/09/10 02:49:03;;;;;;;13.30;11.18;;;;;;;;;;5034339;28;20046;-65
2021/09/10 02:51:31;;;;;;;12.65;9.88;;;;;;;;;;5033972;28;20050;-64
2021/09/10 02:53:58;;;;;;;11.57;10.07;;;;;;;;;;5033878;28;20414;-64
2021/09/10 02:56:25;;;;;;;13.65;10.73;;;;;;;;;;5034423;28;20053;-65
2021/09/10 02:58:52;;;;;;;12.38;10.43;;;;;;;;;;5034017;28;20053;-64
2021/09/10 03:01:19;;;;;;;12.93;10.43;;;;;;;;;;5034220;28;20320;-64
2021/09/10 03:03:46;;;;;;;11.68;9.85;;;;;;;;;;5034012;28;20049;-64
2021/09/10 03:06:14;;;;;;;12.82;9.68;;;;;;;;;;5034257;28;20053;-64
2021/09/10 03:08:42;;;;;;;12.32;9.90;;;;;;;;;;5034057;28;20049;-64
2021/09/10 03:11:10;;;;;;;13.23;9.90;;;;;;;;;;5033928;28;20475;-64
2021/09/10 03:13:37;;;;;;;12.43;10.43;;;;;;;;;;5033526;28;20140;-64
2021/09/10 03:16:04;;;;;;;15.57;10.52;;;;;;;;;;5033907;28;20053;-64
2021/09/10 03:18:31;;;;;;;13.50;9.90;;;;;;;;;;5033971;28;20046;-64
2021/09/10 03:20:58;;;;;;;12.93;9.40;;;;;;;;;;5033640;28;20081;-64
2021/09/10 03:23:25;;;;;;;11.52;9.85;;;;;;;;;;5033600;28;20041;-64
2021/09/10 03:25:53;;;;;;;13.10;10.23;;;;;;;;;;5033738;28;20056;-64
2021/09/10 03:28:20;;;;;;;11.85;10.57;;;;;;;;;;5033611;28;20041;-64
2021/09/10 03:30:47;;;;;;;16.45;10.75;;;;;;;;;;5033554;28;20049;-64
2021/09/10 03:33:14;;;;;;;11.93;10.27;;;;;;;;;;5033477;28;20050;-64
2021/09/10 03:35:41;;;;;;;14.25;10.55;;;;;;;;;;5033532;28;20056;-64
2021/09/10 03:38:08;;;;;;;14.35;11.63;;;;;;;;;;5033467;28;20049;-64
2021/09/10 03:40:36;;;;;;;13.57;10.65;;;;;;;;;;5033239;28;20050;-64
2021/09/10 03:43:05;;;;;;;14.07;11.13;;;;;;;;;;5033125;28;20045;-64
2021/09/10 03:45:32;;;;;;;14.07;11.68;;;;;;;;;;5033061;28;20052;-64
2021/09/10 03:47:59;;;;;;;14.70;11.38;;;;;;;;;;5033246;28;20132;-64
2021/09/10 03:50:26;;;;;;;15.73;12.38;;;;;;;;;;5032819;28;20525;-64
2021/09/10 03:52:53;;;;;;;22.15;16.20;;;;;;;;;;5032956;28;20517;-64
2021/09/10 03:55:19;;;;;;;22.73;16.65;;;;;;;;;;5032594;28;20052;-64
2021/09/10 03:57:46;;;;;;;20.92;16.33;;;;;;;;;;5033112;28;20041;-64
2021/09/10 04:00:15;;;;;;;23.08;15.85;;;;;;;;;;5032791;28;20506;-64
2021/09/10 04:02:43;;;;;;;20.92;16.58;;;;;;;;;;5032098;28;20045;-64
2021/09/10 04:05:11;;;;;;;23.35;18.38;;;;;;;;;;5032220;28;20049;-64
2021/09/10 04:07:38;;;;;;;21.58;17.45;;;;;;;;;;5032775;28;20135;-64
2021/09/10 04:10:06;;;;;;;20.92;15.13;;;;;;;;;;5032581;28;20060;-64
2021/09/10 04:12:33;;;;;;;17.65;13.70;;;;;;;;;;5032672;28;20049;-64
2021/09/10 04:15:00;;;;;;;17.38;13.68;;;;;;;;;;5032297;28;20045;-64
2021/09/10 04:17:28;;;;;;;18.05;14.02;;;;;;;;;;5032628;28;20049;-64
2021/09/10 04:19:55;;;;;;;17.13;13.25;;;;;;;;;;5032409;28;20057;-64
2021/09/10 04:22:22;;;;;;;15.20;12.10;;;;;;;;;;5032600;28;20129;-64
2021/09/10 04:24:49;;;;;;;14.35;11.75;;;;;;;;;;5032124;28;20052;-64
2021/09/10 04:27:16;;;;;;;15.10;11.73;;;;;;;;;;5032606;28;20056;-64
2021/09/10 04:29:42;;;;;;;18.17;15.10;;;;;;;;;;5031899;28;20045;-64
2021/09/10 04:32:09;;;;;;;18.95;15.55;;;;;;;;;;5032485;28;20045;-64
2021/09/10 04:34:38;;;;;;;20.15;14.80;;;;;;;;;;5031980;28;20419;-64
2021/09/10 04:37:06;;;;;;;19.23;15.10;;;;;;;;;;5032243;28;20061;-64
2021/09/10 04:39:33;;;;;;;17.15;12.60;;;;;;;;;;5032124;28;20053;-64
2021/09/10 04:42:00;;;;;;;14.25;10.70;;;;;;;;;;5032086;28;20107;-64
2021/09/10 04:44:27;;;;;;;13.80;11.98;;;;;;;;;;5031697;28;20042;-64
2021/09/10 04:46:54;;;;;;;14.88;11.57;;;;;;;;;;5032116;28;20048;-64
2021/09/10 04:49:21;;;;;;;14.35;10.70;;;;;;;;;;5032027;28;20287;-64
2021/09/10 04:51:49;;;;;;;15.85;10.55;;;;;;;;;;5031839;28;20446;-64
2021/09/10 04:54:16;;;;;;;12.27;10.13;;;;;;;;;;5032161;28;20507;-64
2021/09/10 04:56:45;;;;;;;15.07;11.30;;;;;;;;;;5031831;28;20091;-64
2021/09/10 04:59:12;;;;;;;15.95;12.02;;;;;;;;;;5032188;28;20141;-64
2021/09/10 05:01:39;;;;;;;18.70;13.85;;;;;;;;;;5031770;28;20053;-64
2021/09/10 05:04:06;;;;;;;20.08;14.52;;;;;;;;;;5031614;28;20052;-64
2021/09/10 05:06:33;;;;;;;21.63;16.10;;;;;;;;;;5031833;28;20053;-64
2021/09/10 05:09:02;;;;;;;19.48;14.63;;;;;;;;;;5031798;28;20053;-64
2021/09/10 05:11:29;;;;;;;19.17;14.85;;;;;;;;;;5031484;28;20050;-64
2021/09/10 05:13:56;;;;;;;21.35;16.95;;;;;;;;;;5031354;28;20413;-64
2021/09/10 05:16:23;;;;;;;19.67;15.52;;;;;;;;;;5031627;28;20050;-64
2021/09/10 05:18:49;;;;;;;20.60;16.67;;;;;;;;;;5031526;28;20053;-64
2021/09/10 05:21:16;;;;;;;22.05;16.65;;;;;;;;;;5031625;28;20061;-64
2021/09/10 05:23:43;;;;;;;21.52;15.45;;;;;;;;;;5031456;28;20491;-64
2021/09/10 05:26:12;;;;;;;20.08;16.58;;;;;;;;;;5031416;28;20053;-64
2021/09/10 05:28:38;;;;;;;21.20;16.88;;;;;;;;;;5031480;28;20418;-64
2021/09/10 05:31:05;;;;;;;21.98;16.30;;;;;;;;;;5031378;28;20046;-64
2021/09/10 05:33:32;;;;;;;19.90;16.20;;;;;;;;;;5031376;28;20050;-64
2021/09/10 05:35:59;;;;;;;19.05;15.40;;;;;;;;;;5031357;28;20061;-64
2021/09/10 05:38:26;;;;;;;22.27;15.88;;;;;;;;;;5031666;28;20049;-64
2021/09/10 05:40:53;;;;;;;23.08;16.00;;;;;;;;;;5031963;28;20050;-64
2021/09/10 05:43:21;;;;;;;18.33;14.57;;;;;;;;;;5031746;28;20517;-64
2021/09/10 05:45:48;;;;;;;20.92;15.82;;;;;;;;;;5031651;28;20533;-64
2021/09/10 05:48:18;;;;;;;19.92;15.27;;;;;;;;;;5031715;28;20419;-64
2021/09/10 05:50:45;;;;;;;20.05;16.10;;;;;;;;;;5031758;28;20050;-64
2021/09/10 05:53:13;;;;;;;23.60;17.52;;;;;;;;;;5031362;28;20107;-64
2021/09/10 05:55:40;;;;;;;21.63;16.67;;;;;;;;;;5031286;28;20041;-64
2021/09/10 05:58:06;;;;;;;21.23;16.23;;;;;;;;;;5031485;28;20049;-64
2021/09/10 06:00:35;;;;;;;21.17;15.88;;;;;;;;;;5031432;28;20051;-64
2021/09/10 06:03:02;;;;;;;19.02;14.05;;;;;;;;;;5031363;28;20160;-64
2021/09/10 06:05:29;;;;;;;18.65;14.23;;;;;;;;;;5031126;28;20049;-64
2021/09/10 06:07:56;;;;;;;18.02;14.88;;;;;;;;;;5031333;28;20049;-64
2021/09/10 06:10:23;;;;;;;20.77;15.73;;;;;;;;;;5031468;28;20053;-64
2021/09/10 06:12:50;;;;;;;19.92;15.10;;;;;;;;;;5031416;28;20045;-64
2021/09/10 06:15:17;;;;;;;19.50;14.55;;;;;;;;;;5031081;28;20042;-64
2021/09/10 06:17:45;;;;;;;14.25;11.05;;;;;;;;;;5031300;28;20053;-64
2021/09/10 06:20:13;;;;;;;14.77;11.63;;;;;;;;;;5030846;28;20045;-65
2021/09/10 06:22:40;;;;;;;14.10;10.80;;;;;;;;;;5030913;28;20045;-64
2021/09/10 06:25:09;;;;;;;15.73;10.93;;;;;;;;;;5031036;28;20042;-64
2021/09/10 06:27:37;;;;;;;14.23;10.07;;;;;;;;;;5034131;28;20156;-64
2021/09/10 06:30:06;;;;;;;12.65;9.52;;;;;;;;;;5034978;28;20388;-64
2021/09/10 06:32:33;;;;;;;15.38;10.18;;;;;;;;;;5034417;28;20041;-64
2021/09/10 06:35:02;;;;;;;27.45;11.70;;;;;;;;;;5034927;28;20406;-64
2021/09/10 06:37:29;;;;;;;16.63;10.68;;;;;;;;;;5034733;28;20091;-64
2021/09/10 06:39:56;;;;;;;16.58;10.27;;;;;;;;;;5034568;28;20045;-64
2021/09/10 06:42:23;;;;;;;14.18;10.15;;;;;;;;;;5034220;28;20046;-64
2021/09/10 06:44:51;;;;;;;17.70;11.02;;;;;;;;;;5034241;28;20054;-64
2021/09/10 06:47:18;;;;;;;16.77;10.65;;;;;;;;;;5034221;28;20053;-64
2021/09/10 06:49:46;;;;;;;14.80;10.10;;;;;;;;;;5033812;28;20046;-64
2021/09/10 06:52:14;;;;;;;12.85;10.05;;;;;;;;;;5033910;28;20043;-65
2021/09/10 06:54:41;;;;;;;11.98;9.60;;;;;;;;;;5031439;28;20038;-64
2021/09/10 06:57:11;;;;;;;15.73;10.57;;;;;;;;;;5043547;22;20072;-66
2021/09/10 06:59:39;;;;;;;15.77;10.60;;;;;;;;;;5026301;28;20046;-66
2021/09/10 07:02:06;;;;;;;15.05;9.95;;;;;;;;;;5011708;28;20053;-65
2021/09/10 07:04:35;;;;;;;14.75;10.00;;;;;;;;;;5013862;28;20064;-66
2021/09/10 07:07:02;;;;;;;11.70;9.20;;;;;;;;;;5014853;28;20100;-66
2021/09/10 07:09:31;;;;;;;12.55;8.90;;;;;;;;;;5014459;28;20050;-66
2021/09/10 07:11:58;;;;;;;12.57;9.18;;;;;;;;;;5014524;28;20045;-66
2021/09/10 07:14:24;;;;;;;13.27;9.85;;;;;;;;;;5014187;28;20515;-66
2021/09/10 07:16:51;;;;;;;11.63;8.73;;;;;;;;;;5014207;28;20109;-66
2021/09/10 07:19:18;;;;;;;12.25;8.88;;;;;;;;;;5011938;28;20057;-66
2021/09/10 07:21:46;;;;;;;13.20;10.05;;;;;;;;;;5012576;28;20053;-66
2021/09/10 07:24:13;;;;;;;13.00;9.90;;;;;;;;;;5012411;28;20046;-66
2021/09/10 07:26:42;;;;;;;13.65;9.63;;;;;;;;;;5012424;28;20483;-66
2021/09/10 07:29:09;;;;;;;14.90;10.48;;;;;;;;;;5031110;28;20045;-66
2021/09/10 07:31:36;;;;;;;14.88;10.18;;;;;;;;;;5032131;28;20525;-66
2021/09/10 07:34:05;;;;;;;12.20;9.52;;;;;;;;;;5031785;28;20060;-66
2021/09/10 07:36:32;;;;;;;13.40;10.23;;;;;;;;;;5033237;28;20057;-66
2021/09/10 07:38:59;;;;;;;12.55;10.10;;;;;;;;;;5031696;28;20053;-66
2021/09/10 07:41:26;;;;;;;12.38;9.88;;;;;;;;;;5032602;28;20053;-66
2021/09/10 07:43:54;;;;;;;11.38;9.77;;;;;;;;;;5033047;28;20045;-66
2021/09/10 07:46:21;;;;;;;14.20;9.98;;;;;;;;;;5033719;28;20698;-66
2021/09/10 07:48:49;;;;;;;18.50;10.10;;;;;;;;;;5032668;28;20060;-68
2021/09/10 07:51:15;;;;;;;14.50;11.18;;;;;;;;;;5033699;28;20092;-68
2021/09/10 07:53:43;;;;;;;12.27;10.27;;;;;;;;;;5032988;28;20049;-67
2021/09/10 07:56:10;;;;;;;12.52;9.95;;;;;;;;;;5033332;28;20057;-67
2021/09/10 07:58:37;;;;;;;14.13;10.02;;;;;;;;;;5033034;28;20387;-67
2021/09/10 08:01:05;;;;;;;14.63;9.98;;;;;;;;;;5033141;28;20474;-67
2021/09/10 08:03:34;;;;;;;15.27;11.00;;;;;;;;;;5018718;28;20053;-67
2021/09/10 08:06:00;;;;;;;18.95;11.75;;;;;;;;;;5011795;28;20080;-72
2021/09/10 08:08:27;;;;;;;14.38;11.00;;;;;;;;;;5011809;28;20049;-66
2021/09/10 08:10:54;;;;;;;14.30;10.88;;;;;;;;;;5009959;28;20049;-68
2021/09/10 08:13:21;;;;;;;15.75;10.27;;;;;;;;;;5011780;28;20263;-65
2021/09/10 08:15:48;;;;;;;14.32;10.48;;;;;;;;;;5011095;28;20128;-64
2021/09/10 08:18:17;;;;;;;15.52;10.63;;;;;;;;;;5011516;28;20046;-64
2021/09/10 08:20:44;;;;;;;14.30;10.00;;;;;;;;;;5011117;28;20041;-65
2021/09/10 08:23:11;;;;;;;12.98;10.95;;;;;;;;;;5010921;28;20315;-65
2021/09/10 08:25:38;;;;;;;16.77;11.23;;;;;;;;;;5011498;28;20515;-65
2021/09/10 08:28:06;;;;;;;14.82;10.65;;;;;;;;;;5011352;28;20137;-65
2021/09/10 08:30:33;;;;;;;13.77;9.55;;;;;;;;;;5011076;28;20527;-63
2021/09/10 08:33:00;;;;;;;17.08;10.75;;;;;;;;;;5010736;28;20056;-62
2021/09/10 08:35:28;;;;;;;15.25;9.68;;;;;;;;;;5011193;28;20487;-67
2021/09/10 08:37:57;;;;;;;12.63;10.02;;;;;;;;;;5011602;28;20049;-65
2021/09/10 08:40:24;;;;;;;12.55;10.05;;;;;;;;;;5011230;28;20089;-61
2021/09/10 08:42:52;;;;;;;15.65;9.95;;;;;;;;;;5010918;28;20046;-64
2021/09/10 08:45:19;;;;;;;16.30;10.18;;;;;;;;;;5010898;28;20093;-63
2021/09/10 08:47:46;;;;;;;12.63;9.82;;;;;;;;;;5011169;28;20363;-62
2021/09/10 08:50:13;;;;;;;11.57;9.65;;;;;;;;;;5010275;28;20060;-62
2021/09/10 08:52:42;;;;;;;14.77;9.75;;;;;;;;;;5010991;28;20046;-66
2021/09/10 08:55:11;;;;;;;12.07;9.80;;;;;;;;;;5011307;28;20173;-65
2021/09/10 08:57:46;;;;;;;13.82;9.98;;;;;;;;;;5011444;28;20056;-65
2021/09/10 09:00:15;;;;;;;13.07;8.95;;;;;;;;;;5012913;28;20050;-65
2021/09/10 09:02:42;;;;;;;14.43;10.48;;;;;;;;;;5006040;28;20046;-65
2021/09/10 09:05:10;;;;;;;17.08;12.70;;;;;;;;;;4991961;28;20074;-66
2021/09/10 09:07:40;;;;;;;16.38;13.65;;;;;;;;;;4991368;28;20046;-66
2021/09/10 09:10:09;;;;;;;17.35;11.07;;;;;;;;;;4991586;28;20503;-65
2021/09/10 09:12:36;;;;;;;12.80;10.95;;;;;;;;;;4992420;28;20050;-65
2021/09/10 09:15:05;;;;;;;16.10;11.60;;;;;;;;;;4991718;28;20050;-65
2021/09/10 09:17:34;;;;;;;14.87;10.23;;;;;;;;;;4993154;28;20129;-65
2021/09/10 09:20:19;;;;;;;21.95;18.00;;;;;;;;;;4993105;28;20070;-65
2021/09/10 09:22:57;;;;;;;12.73;11.20;;;;;;;;;;4992286;28;20058;-65
2021/09/10 09:25:26;;;;;;;14.13;10.18;;;;;;;;;;4990658;28;20058;-65
2021/09/10 09:27:53;;;;;;;11.15;9.27;;;;;;;;;;4990493;28;20058;-64
2021/09/10 09:30:36;;;;;;;12.90;9.98;;;;;;;;;;4990635;28;20054;-66
2021/09/10 09:33:03;;;;;;;12.50;9.68;;;;;;;;;;4988128;28;20050;-66
2021/09/10 09:35:31;;;;;;;16.50;10.25;;;;;;;;;;4990536;28;20050;-66
2021/09/10 09:37:58;;;;;;;15.68;11.23;;;;;;;;;;4990443;28;20050;-66
2021/09/10 09:40:33;;;;;;;12.80;9.75;;;;;;;;;;4990822;28;20069;-66
2021/09/10 09:43:00;;;;;;;14.95;9.77;;;;;;;;;;4990529;28;20108;-66
2021/09/10 09:45:28;;;;;;;16.17;11.02;;;;;;;;;;4990878;28;20051;-66
2021/09/10 09:47:56;;;;;;;13.73;10.50;;;;;;;;;;4990655;28;20057;-66
2021/09/10 09:50:23;;;;;;;15.52;11.88;;;;;;;;;;4991108;28;20148;-66
2021/09/10 09:52:52;;;;;;;11.73;9.98;;;;;;;;;;4991663;28;20050;-66
2021/09/10 09:55:19;;;;;;;13.43;10.65;;;;;;;;;;4990622;28;20512;-66
2021/09/10 09:57:48;;;;;;;13.55;9.70;;;;;;;;;;4990580;28;20077;-66
2021/09/10 10:00:16;;;;;;;13.68;10.50;;;;;;;;;;4990684;28;20054;-68
2021/09/10 10:02:44;;;;;;;19.00;13.23;;;;;;;;;;4999968;28;20429;-70
2021/09/10 10:05:17;;;;;;;154.90;91.97;;;;;;;;;;5013996;28;20054;-65
2021/09/10 10:07:48;;;;;;;41.08;28.70;;;;;;;;;;5014126;28;20057;-65
2021/09/10 10:10:20;;;;;;;38.45;24.45;;;;;;;;;;5013740;28;20050;-65
2021/09/10 10:12:50;;;;;;;19.17;13.30;;;;;;;;;;5013610;28;20411;-65
2021/09/10 10:15:23;;;;;;;14.98;10.90;;;;;;;;;;5013813;28;20072;-65
2021/09/10 10:17:50;;;;;;;21.73;15.55;;;;;;;;;;5013459;28;20446;-65
2021/09/10 10:20:49;;;;;;;16.45;11.32;;;;;;;;;;5013255;28;20046;-65
2021/09/10 10:23:57;;;;;;;18.10;11.57;;;;;;;;;;5013684;28;20050;-65
2021/09/10 10:26:42;;;;;;;16.80;11.15;;;;;;;;;;5013673;28;20050;-65
2021/09/10 10:29:13;;;;;;;16.65;11.32;;;;;;;;;;5013459;28;20054;-66
2021/09/10 10:32:05;;;;;;;14.68;11.07;;;;;;;;;;5013325;28;20053;-66
2021/09/10 10:34:35;;;;;;;13.55;10.70;;;;;;;;;;5013060;28;20507;-66
2021/09/10 10:37:02;;;;;;;13.23;10.02;;;;;;;;;;5013611;28;20061;-66
2021/09/10 10:39:30;;;;;;;11.98;9.48;;;;;;;;;;5013133;28;20053;-66
2021/09/10 10:42:02;;;;;;;13.88;10.75;;;;;;;;;;5013045;28;20061;-66
2021/09/10 10:44:52;;;;;;;15.65;11.07;;;;;;;;;;5013206;28;20513;-65
2021/09/10 10:47:32;;;;;;;14.90;11.30;;;;;;;;;;5013388;28;20422;-65
2021/09/10 10:49:59;;;;;;;;;;;;;;;;;;5013716;28;20046;-65
2021/09/10 10:52:34;;;;;;;16.10;11.63;;;;;;;;;;5012976;28;19929;-64
2021/09/10 10:55:20;;;;;;;14.73;11.43;;;;;;;;;;5012873;28;20557;-65
2021/09/10 10:57:48;;;;;;;14.13;10.02;;;;;;;;;;5003712;28;20054;-67
2021/09/10 11:00:47;;;;;;;16.20;11.07;;;;;;;;;;5012406;28;20124;-65
2021/09/10 11:03:56;;;;;;;14.98;11.15;;;;;;;;;;5002773;28;20487;-67
2021/09/10 11:06:39;;;;;;;12.52;10.43;;;;;;;;;;4933716;29;20110;-65
2021/09/10 11:09:12;;;;;;;14.88;10.95;;;;;;;;;;4990135;28;20134;-66
2021/09/10 11:11:39;;;;;;;16.65;12.63;;;;;;;;;;4996349;28;20045;-66
2021/09/10 11:14:10;;;;;;;21.45;15.15;;;;;;;;;;5000543;28;20042;-72
2021/09/10 11:16:37;;;;;;;16.38;11.88;;;;;;;;;;4993208;28;20149;-69
2021/09/10 11:19:07;;;;;;;13.70;10.80;;;;;;;;;;4992905;28;20050;-68
2021/09/10 11:21:33;;;;;;;14.70;10.50;;;;;;;;;;4992440;28;20124;-66
2021/09/10 11:24:08;;;;;;;61.95;52.90;;;;;;;;;;4993737;28;20054;-65
2021/09/10 11:26:36;;;;;;;14.23;11.02;;;;;;;;;;4994804;28;20065;-66
2021/09/10 11:29:11;;;;;;;12.85;11.15;;;;;;;;;;4992741;28;20050;-66
2021/09/10 11:31:38;;;;;;;12.55;11.15;;;;;;;;;;4993145;28;20046;-66
2021/09/10 11:34:06;;;;;;;12.85;10.50;;;;;;;;;;4992239;28;20054;-66
2021/09/10 11:36:33;;;;;;;12.60;10.90;;;;;;;;;;4992534;28;20050;-66
2021/09/10 11:39:02;;;;;;;17.95;14.60;;;;;;;;;;4995607;28;20533;-66
2021/09/10 11:41:29;;;;;;;12.48;10.40;;;;;;;;;;5011205;28;20057;-65
2021/09/10 11:43:56;;;;;;;17.30;14.30;;;;;;;;;;5011873;28;20064;-67
2021/09/10 11:46:22;;;;;;;20.10;17.52;;;;;;;;;;5012000;28;20053;-66
2021/09/10 11:48:53;;;;;;;12.52;11.13;;;;;;;;;;5011722;28;20081;-66
2021/09/10 11:51:38;;;;;;;14.73;12.35;;;;;;;;;;5011954;28;20080;-66
2021/09/10 11:54:10;;;;;;;12.10;10.57;;;;;;;;;;5010222;28;20421;-66
2021/09/10 11:56:38;;;;;;;13.27;11.05;;;;;;;;;;5011684;28;20050;-67
2021/09/10 11:59:20;;;;;;;11.80;10.23;;;;;;;;;;5011150;28;20050;-67
2021/09/10 12:01:47;;;;;;;13.32;10.73;;;;;;;;;;5010931;28;20046;-67
2021/09/10 12:04:26;;;;;;;12.07;10.38;;;;;;;;;;4992755;28;20053;-67
2021/09/10 12:06:57;;;;;;;13.15;11.82;;;;;;;;;;4992132;28;20061;-67
2021/09/10 12:09:25;;;;;;;15.88;12.15;;;;;;;;;;4991716;28;20073;-67
2021/09/10 12:12:17;;;;;;;14.13;10.52;;;;;;;;;;4991952;28;20061;-67
2021/09/10 12:14:48;;;;;;;14.85;11.90;;;;;;;;;;5008743;28;20518;-67
2021/09/10 12:17:20;;;;;;;13.68;10.05;;;;;;;;;;5011485;28;20535;-67
2021/09/10 12:19:53;;;;;;;11.02;9.70;;;;;;;;;;5010890;28;20053;-67
2021/09/10 12:22:29;;;;;;;11.50;9.27;;;;;;;;;;5011426;28;20085;-68
2021/09/10 12:25:20;;;;;;;14.48;10.73;;;;;;;;;;5010142;28;20058;-66
2021/09/10 12:27:48;;;;;;;12.90;11.50;;;;;;;;;;5011109;28;20145;-66
2021/09/10 12:30:17;;;;;;;13.40;11.60;;;;;;;;;;5003330;28;20050;-66
2021/09/10 12:32:44;;;;;;;13.85;11.32;;;;;;;;;;4991251;28;20061;-66
2021/09/10 12:35:11;;;;;;;15.65;11.98;;;;;;;;;;4991074;28;20050;-66
2021/09/10 12:37:39;;;;;;;13.05;11.23;;;;;;;;;;4991468;28;20116;-67
2021/09/10 12:40:08;;;;;;;14.55;12.02;;;;;;;;;;4991067;28;20062;-66
2021/09/10 12:42:35;;;;;;;12.50;10.43;;;;;;;;;;4991603;28;20109;-67
2021/09/10 12:45:01;;;;;;;13.88;11.55;;;;;;;;;;4991504;28;20092;-66
2021/09/10 12:47:28;;;;;;;13.23;10.88;;;;;;;;;;4991377;28;20495;-66
2021/09/10 12:49:55;;;;;;;12.90;11.07;;;;;;;;;;4991371;28;20065;-67
2021/09/10 12:52:22;;;;;;;13.95;10.75;;;;;;;;;;4991315;28;20054;-66
2021/09/10 12:54:50;;;;;;;12.45;10.75;;;;;;;;;;4990898;28;20061;-66
2021/09/10 12:57:17;;;;;;;12.57;10.55;;;;;;;;;;4991076;28;20108;-66
2021/09/10 12:59:44;;;;;;;13.80;10.77;;;;;;;;;;4991231;28;20057;-67
2021/09/10 13:02:13;;;;;;;13.20;11.80;;;;;;;;;;4993083;28;20050;-66
2021/09/10 13:04:40;;;;;;;13.38;10.48;;;;;;;;;;5010737;28;20046;-67
2021/09/10 13:07:07;;;;;;;13.95;10.35;;;;;;;;;;5010702;28;20077;-66
2021/09/10 13:09:34;;;;;;;12.60;10.45;;;;;;;;;;5010550;28;20084;-66
2021/09/10 13:12:02;;;;;;;12.93;11.50;;;;;;;;;;5010767;28;20050;-66
2021/09/10 13:14:29;;;;;;;12.23;10.75;;;;;;;;;;5010251;28;20046;-66
2021/09/10 13:16:56;;;;;;;10.63;9.57;;;;;;;;;;5010117;28;20057;-66
2021/09/10 13:19:23;;;;;;;13.25;10.35;;;;;;;;;;5010257;28;20050;-67
2021/09/10 13:21:50;;;;;;;13.13;11.35;;;;;;;;;;5010772;28;20049;-66
2021/09/10 13:24:19;;;;;;;11.38;10.23;;;;;;;;;;5010688;28;20447;-66
2021/09/10 13:26:46;;;;;;;11.52;10.15;;;;;;;;;;5010777;28;20505;-65
2021/09/10 13:29:15;;;;;;;12.00;10.70;;;;;;;;;;5009993;28;20093;-65
2021/09/10 13:31:42;;;;;;;11.02;9.90;;;;;;;;;;5010377;28;20053;-66
2021/09/10 13:34:09;;;;;;;13.10;11.57;;;;;;;;;;5007612;28;20563;-66
2021/09/10 13:36:36;;;;;;;11.63;10.27;;;;;;;;;;5013033;28;20068;-66
2021/09/10 13:39:03;;;;;;;13.70;10.25;;;;;;;;;;5014120;28;20076;-66
2021/09/10 13:41:30;;;;;;;12.80;11.50;;;;;;;;;;5014254;28;20057;-67
2021/09/10 13:43:57;;;;;;;12.85;10.88;;;;;;;;;;5013610;28;20053;-66
2021/09/10 13:46:26;;;;;;;10.57;9.48;;;;;;;;;;5014222;28;20404;-66
2021/09/10 13:48:54;;;;;;;12.45;10.15;;;;;;;;;;5014473;28;20127;-66
2021/09/10 13:51:20;;;;;;;11.55;9.80;;;;;;;;;;5014409;28;20053;-66
2021/09/10 13:53:48;;;;;;;11.52;10.13;;;;;;;;;;5013835;28;20060;-67
2021/09/10 13:56:18;;;;;;;10.93;9.75;;;;;;;;;;5014585;28;20156;-66
2021/09/10 13:58:45;;;;;;;12.85;10.23;;;;;;;;;;5014109;28;20050;-66
2021/09/10 14:01:12;;;;;;;11.27;10.18;;;;;;;;;;5013884;28;20046;-65
2021/09/10 14:03:41;;;;;;;11.13;9.93;;;;;;;;;;5013792;28;20414;-65
2021/09/10 14:06:09;;;;;;;10.25;9.20;;;;;;;;;;5013778;28;20129;-69
2021/09/10 14:08:36;;;;;;;24.23;21.63;;;;;;;;;;5014026;28;20060;-70
2021/09/10 14:11:03;;;;;;;10.95;9.82;;;;;;;;;;5009655;28;20061;-68
2021/09/10 14:13:31;;;;;;;11.18;9.30;;;;;;;;;;5001177;28;20042;-72
2021/09/10 14:15:58;;;;;;;11.43;9.57;;;;;;;;;;5013684;28;20314;-67
2021/09/10 14:18:25;;;;;;;17.95;14.07;;;;;;;;;;5013731;28;20052;-71
2021/09/10 14:20:54;;;;;;;13.15;10.93;;;;;;;;;;5013593;28;20050;-67
2021/09/10 14:23:21;;;;;;;11.02;9.90;;;;;;;;;;5013677;28;20573;-69
2021/09/10 14:25:49;;;;;;;10.13;9.07;;;;;;;;;;5013676;28;20064;-68
2021/09/10 14:28:16;;;;;;;10.68;9.57;;;;;;;;;;5013839;28;20050;-68
2021/09/10 14:30:43;;;;;;;11.43;10.10;;;;;;;;;;5013665;28;20084;-70